createdAt,value
2018-08-23T00:01:29.665Z,21.58
2018-08-23T00:04:02.752Z,21.54
2018-08-23T00:06:31.129Z,21.49
2018-08-23T00:08:59.519Z,21.45
2018-08-23T00:11:31.540Z,21.41
2018-08-23T00:13:59.902Z,21.39
2018-08-23T00:16:36.574Z,21.36
2018-08-23T00:19:05.163Z,21.33
2018-08-23T00:21:37.945Z,21.31
2018-08-23T00:24:09.562Z,21.26
2018-08-23T00:26:39.098Z,21.22
2018-08-23T00:29:17.192Z,21.16
2018-08-23T00:31:52.302Z,21.10
2018-08-23T00:34:21.550Z,21.06
2018-08-23T00:36:49.891Z,21.02
2018-08-23T00:39:18.400Z,20.99
2018-08-23T00:41:52.026Z,20.96
2018-08-23T00:44:20.347Z,20.92
2018-08-23T00:46:48.739Z,20.90
2018-08-23T00:49:17.728Z,20.88
2018-08-23T00:51:46.504Z,20.85
2018-08-23T00:54:14.913Z,20.82
2018-08-23T00:56:43.253Z,20.78
2018-08-23T00:59:12.337Z,20.77
2018-08-23T01:01:45.467Z,20.75
2018-08-23T01:04:18.280Z,20.74
2018-08-23T01:06:46.757Z,20.74
2018-08-23T01:09:15.237Z,20.73
2018-08-23T01:11:46.256Z,20.71
2018-08-23T01:14:14.608Z,20.68
2018-08-23T01:16:48.883Z,20.67
2018-08-23T01:19:22.604Z,20.68
2018-08-23T01:21:55.127Z,20.67
2018-08-23T01:24:27.844Z,20.66
2018-08-23T01:26:56.664Z,20.64
2018-08-23T01:29:28.890Z,20.61
2018-08-23T01:32:16.123Z,20.57
2018-08-23T01:34:44.455Z,20.55
2018-08-23T01:37:18.479Z,20.53
2018-08-23T01:39:46.845Z,20.49
2018-08-23T01:42:15.193Z,20.47
2018-08-23T01:44:43.562Z,20.43
2018-08-23T01:47:11.989Z,20.39
2018-08-23T01:49:40.297Z,20.36
2018-08-23T01:52:08.658Z,20.36
2018-08-23T01:54:37.024Z,20.35
2018-08-23T01:57:05.446Z,20.29
2018-08-23T01:59:33.772Z,20.25
2018-08-23T02:02:06.272Z,20.23
2018-08-23T02:04:34.661Z,20.19
2018-08-23T02:07:02.978Z,20.17
2018-08-23T02:09:31.336Z,20.12
2018-08-23T02:11:59.730Z,20.10
2018-08-23T02:14:30.220Z,20.06
2018-08-23T02:16:58.576Z,20.03
2018-08-23T02:19:27.026Z,20.01
2018-08-23T02:21:55.385Z,19.99
2018-08-23T02:24:29.712Z,19.98
2018-08-23T02:26:58.080Z,19.97
2018-08-23T02:29:37.789Z,19.94
2018-08-23T02:32:06.885Z,19.94
2018-08-23T02:34:42.261Z,19.95
2018-08-23T02:37:12.373Z,19.90
2018-08-23T02:39:41.130Z,19.88
2018-08-23T02:42:17.700Z,19.84
2018-08-23T02:44:47.017Z,19.79
2018-08-23T02:47:16.212Z,19.75
2018-08-23T02:49:44.650Z,19.72
2018-08-23T02:52:13.012Z,19.70
2018-08-23T02:54:41.332Z,19.66
2018-08-23T02:57:11.954Z,19.63
2018-08-23T02:59:40.299Z,19.60
2018-08-23T03:02:12.839Z,19.59
2018-08-23T03:04:41.266Z,19.57
2018-08-23T03:07:09.604Z,19.56
2018-08-23T03:09:39.887Z,19.54
2018-08-23T03:12:10.447Z,19.47
2018-08-23T03:14:39.307Z,19.44
2018-08-23T03:17:22.471Z,19.41
2018-08-23T03:20:11.104Z,19.37
2018-08-23T03:22:39.869Z,19.34
2018-08-23T03:25:17.590Z,19.31
2018-08-23T03:27:45.978Z,19.28
2018-08-23T03:30:15.585Z,19.26
2018-08-23T03:32:43.956Z,19.23
2018-08-23T03:35:12.303Z,19.19
2018-08-23T03:37:40.637Z,19.15
2018-08-23T03:40:10.613Z,19.13
2018-08-23T03:42:39.018Z,19.07
2018-08-23T03:45:12.436Z,19.06
2018-08-23T03:47:46.044Z,19.04
2018-08-23T03:50:14.422Z,19.03
2018-08-23T03:52:46.639Z,19.03
2018-08-23T03:55:18.105Z,19.02
2018-08-23T03:57:50.820Z,18.98
2018-08-23T04:00:24.405Z,18.98
2018-08-23T04:02:52.714Z,18.95
2018-08-23T04:05:21.317Z,18.94
2018-08-23T04:07:49.644Z,18.93
2018-08-23T04:10:17.996Z,18.92
2018-08-23T04:12:46.316Z,18.91
2018-08-23T04:15:27.007Z,18.88
2018-08-23T04:17:55.272Z,18.88
2018-08-23T04:20:23.961Z,18.86
2018-08-23T04:22:52.527Z,18.84
2018-08-23T04:25:20.813Z,18.83
2018-08-23T04:27:49.202Z,18.79
2018-08-23T04:30:17.543Z,18.77
2018-08-23T04:32:48.057Z,18.75
2018-08-23T04:35:22.506Z,18.76
2018-08-23T04:37:51.434Z,18.74
2018-08-23T04:40:19.784Z,18.74
2018-08-23T04:42:48.154Z,18.75
2018-08-23T04:45:22.651Z,18.76
2018-08-23T04:48:08.819Z,18.77
2018-08-23T04:50:38.599Z,18.78
2018-08-23T04:53:06.980Z,18.77
2018-08-23T04:55:35.353Z,18.79
2018-08-23T04:58:04.301Z,18.79
2018-08-23T05:00:33.009Z,18.79
2018-08-23T05:03:01.425Z,18.81
2018-08-23T05:05:29.782Z,18.83
2018-08-23T05:07:58.129Z,18.86
2018-08-23T05:10:26.509Z,18.91
2018-08-23T05:12:54.953Z,18.97
2018-08-23T05:15:23.294Z,19.03
2018-08-23T05:17:51.635Z,19.09
2018-08-23T05:20:20.030Z,19.19
2018-08-23T05:22:53.835Z,19.27
2018-08-23T05:25:23.320Z,19.39
2018-08-23T05:28:05.130Z,19.53
2018-08-23T05:30:33.838Z,19.67
2018-08-23T05:33:10.569Z,19.77
2018-08-23T05:35:39.045Z,19.86
2018-08-23T05:38:08.180Z,19.94
2018-08-23T05:40:42.558Z,20.02
2018-08-23T05:43:11.218Z,20.11
2018-08-23T05:45:44.671Z,20.20
2018-08-23T05:48:20.674Z,20.32
2018-08-23T05:50:49.009Z,20.41
2018-08-23T05:53:18.295Z,20.51
2018-08-23T05:55:48.807Z,20.62
2018-08-23T05:58:32.933Z,20.65
2018-08-23T06:01:01.532Z,20.64
2018-08-23T06:03:29.932Z,20.65
2018-08-23T06:05:58.461Z,20.71
2018-08-23T06:08:26.811Z,20.78
2018-08-23T06:10:59.398Z,20.92
2018-08-23T06:13:27.740Z,21.06
2018-08-23T06:15:57.137Z,21.18
2018-08-23T06:18:26.232Z,21.32
2018-08-23T06:20:54.870Z,21.44
2018-08-23T06:23:33.311Z,21.60
2018-08-23T06:26:01.685Z,21.76
2018-08-23T06:28:30.044Z,21.96
2018-08-23T06:30:59.510Z,22.12
2018-08-23T06:33:36.884Z,22.22
2018-08-23T06:36:06.411Z,22.25
2018-08-23T06:38:35.770Z,22.28
2018-08-23T06:41:05.319Z,22.35
2018-08-23T06:43:34.387Z,22.49
2018-08-23T06:46:03.330Z,22.59
2018-08-23T06:48:31.996Z,22.66
2018-08-23T06:51:01.356Z,22.71
2018-08-23T06:53:40.293Z,22.66
2018-08-23T06:56:08.997Z,22.73
2018-08-23T06:58:37.660Z,22.85
2018-08-23T07:01:11.264Z,22.98
2018-08-23T07:03:46.185Z,23.12
2018-08-23T07:06:14.511Z,23.29
2018-08-23T07:08:42.823Z,23.40
2018-08-23T07:11:20.706Z,23.43
2018-08-23T07:13:56.327Z,23.45
2018-08-23T07:16:24.743Z,23.43
2018-08-23T07:18:53.077Z,23.40
2018-08-23T07:21:21.409Z,23.38
2018-08-23T07:23:49.756Z,23.40
2018-08-23T07:26:18.145Z,23.44
2018-08-23T07:28:46.459Z,23.44
2018-08-23T07:31:14.793Z,23.42
2018-08-23T07:33:45.022Z,23.44
2018-08-23T07:36:24.864Z,23.41
2018-08-23T07:38:53.144Z,23.37
2018-08-23T07:41:21.493Z,23.37
2018-08-23T07:43:49.806Z,23.42
2018-08-23T07:46:18.203Z,23.39
2018-08-23T07:48:46.528Z,23.34
2018-08-23T07:51:20.358Z,23.24
2018-08-23T07:53:48.763Z,23.24
2018-08-23T07:56:26.368Z,23.30
2018-08-23T07:58:55.891Z,23.37
2018-08-23T08:01:28.595Z,23.40
2018-08-23T08:03:57.819Z,23.37
2018-08-23T08:06:27.056Z,23.50
2018-08-23T08:08:56.871Z,23.60
2018-08-23T08:11:25.219Z,23.65
2018-08-23T08:13:58.917Z,23.64
2018-08-23T08:16:32.695Z,23.63
2018-08-23T08:19:01.177Z,23.68
2018-08-23T08:21:29.523Z,23.71
2018-08-23T08:23:59.040Z,23.76
2018-08-23T08:26:30.165Z,23.73
2018-08-23T08:28:58.655Z,23.77
2018-08-23T08:31:27.000Z,23.81
2018-08-23T08:33:59.344Z,23.84
2018-08-23T08:36:31.665Z,23.84
2018-08-23T08:39:00.883Z,23.88
2018-08-23T08:41:34.074Z,23.91
2018-08-23T08:44:02.583Z,23.96
2018-08-23T08:46:31.047Z,24.01
2018-08-23T08:48:59.552Z,24.09
2018-08-23T08:51:29.609Z,24.15
2018-08-23T08:53:59.517Z,24.26
2018-08-23T08:56:33.726Z,24.38
2018-08-23T08:59:02.072Z,24.44
2018-08-23T09:01:37.072Z,24.58
2018-08-23T09:04:05.474Z,24.67
2018-08-23T09:06:50.135Z,24.67
2018-08-23T09:09:36.538Z,24.68
2018-08-23T09:12:07.391Z,24.69
2018-08-23T09:14:36.339Z,24.75
2018-08-23T09:17:21.477Z,24.89
2018-08-23T09:19:57.298Z,24.92
2018-08-23T09:22:25.663Z,24.99
2018-08-23T09:24:53.997Z,25.00
2018-08-23T09:27:22.411Z,25.01
2018-08-23T09:29:50.718Z,25.06
2018-08-23T09:32:24.443Z,25.11
2018-08-23T09:35:00.077Z,25.14
2018-08-23T09:37:29.302Z,25.20
2018-08-23T09:39:57.790Z,25.25
2018-08-23T09:42:30.248Z,25.15
2018-08-23T09:45:09.108Z,25.07
2018-08-23T09:47:37.415Z,25.00
2018-08-23T09:50:06.170Z,24.97
2018-08-23T09:52:40.893Z,24.94
2018-08-23T09:55:10.808Z,25.00
2018-08-23T09:57:39.316Z,25.13
2018-08-23T10:00:10.030Z,25.26
2018-08-23T10:02:43.664Z,25.41
2018-08-23T10:05:17.385Z,25.67
2018-08-23T10:07:51.231Z,25.81
2018-08-23T10:10:24.939Z,25.89
2018-08-23T10:12:58.767Z,25.98
2018-08-23T10:15:32.498Z,26.04
2018-08-23T10:18:06.518Z,26.17
2018-08-23T10:20:44.910Z,26.44
2018-08-23T10:23:19.113Z,26.67
2018-08-23T10:25:49.673Z,26.74
2018-08-23T10:28:19.267Z,26.65
2018-08-23T10:30:48.004Z,26.52
2018-08-23T10:33:16.483Z,26.40
2018-08-23T10:35:47.329Z,26.18
2018-08-23T10:38:17.274Z,26.11
2018-08-23T10:40:46.720Z,26.04
2018-08-23T10:43:15.541Z,25.98
2018-08-23T10:45:44.213Z,25.90
2018-08-23T10:48:18.858Z,25.84
2018-08-23T10:50:48.196Z,25.90
2018-08-23T10:53:16.931Z,26.04
2018-08-23T10:55:45.522Z,26.21
2018-08-23T10:58:14.299Z,26.30
2018-08-23T11:00:42.897Z,26.27
2018-08-23T11:03:11.311Z,26.22
2018-08-23T11:05:39.646Z,26.10
2018-08-23T11:08:13.270Z,26.08
2018-08-23T11:10:46.953Z,26.17
2018-08-23T11:13:20.598Z,26.25
2018-08-23T11:15:48.951Z,26.44
2018-08-23T11:18:22.582Z,26.55
2018-08-23T11:20:51.451Z,26.57
2018-08-23T11:23:25.430Z,26.58
2018-08-23T11:25:53.782Z,26.59
2018-08-23T11:28:24.136Z,26.46
2018-08-23T11:30:53.124Z,26.54
2018-08-23T11:33:21.483Z,26.65
2018-08-23T11:35:49.845Z,26.66
2018-08-23T11:38:18.185Z,26.67
2018-08-23T11:40:46.509Z,26.73
2018-08-23T11:43:14.837Z,26.74
2018-08-23T11:45:43.185Z,26.74
2018-08-23T11:48:11.553Z,26.68
2018-08-23T11:50:39.889Z,26.62
2018-08-23T11:53:08.327Z,26.57
2018-08-23T11:55:36.705Z,26.56
2018-08-23T11:58:05.095Z,26.54
2018-08-23T12:00:33.397Z,26.46
2018-08-23T12:03:01.748Z,26.41
2018-08-23T12:05:30.418Z,26.43
2018-08-23T12:07:58.763Z,26.46
2018-08-23T12:10:27.119Z,26.46
2018-08-23T12:12:55.551Z,26.53
2018-08-23T12:15:32.839Z,26.57
2018-08-23T12:18:01.303Z,26.67
2018-08-23T12:20:29.590Z,26.76
2018-08-23T12:22:57.948Z,26.90
2018-08-23T12:25:26.347Z,27.00
2018-08-23T12:27:59.869Z,27.12
2018-08-23T12:30:28.301Z,27.18
2018-08-23T12:32:56.737Z,27.21
2018-08-23T12:35:26.083Z,27.29
2018-08-23T12:38:01.422Z,27.24
2018-08-23T12:40:35.820Z,27.16
2018-08-23T12:43:09.880Z,26.98
2018-08-23T12:45:40.335Z,26.90
2018-08-23T12:48:09.761Z,26.89
2018-08-23T12:50:38.194Z,26.86
2018-08-23T12:53:06.707Z,26.85
2018-08-23T12:55:35.352Z,26.91
2018-08-23T12:58:05.036Z,26.98
2018-08-23T13:00:33.405Z,27.11
2018-08-23T13:03:01.870Z,27.18
2018-08-23T13:05:30.098Z,27.17
2018-08-23T13:07:58.573Z,27.14
2018-08-23T13:10:26.912Z,27.17
2018-08-23T13:12:55.296Z,27.20
2018-08-23T13:15:23.688Z,27.12
2018-08-23T13:17:52.125Z,27.13
2018-08-23T13:20:20.452Z,27.14
2018-08-23T13:22:48.799Z,27.18
2018-08-23T13:25:17.107Z,27.21
2018-08-23T13:27:45.537Z,27.24
2018-08-23T13:30:13.876Z,27.28
2018-08-23T13:32:42.245Z,27.31
2018-08-23T13:35:10.621Z,27.34
2018-08-23T13:37:38.987Z,27.37
2018-08-23T13:40:11.563Z,27.41
2018-08-23T13:42:40.059Z,27.40
2018-08-23T13:45:08.504Z,27.45
2018-08-23T13:47:36.887Z,27.42
2018-08-23T13:50:05.227Z,27.31
2018-08-23T13:52:33.553Z,27.28
2018-08-23T13:55:01.963Z,27.27
2018-08-23T13:57:30.298Z,27.23
2018-08-23T13:59:58.658Z,27.23
2018-08-23T14:02:27.000Z,27.28
2018-08-23T14:04:55.703Z,27.34
2018-08-23T14:07:24.132Z,27.43
2018-08-23T14:09:52.386Z,27.42
2018-08-23T14:12:20.688Z,27.39
2018-08-23T14:14:49.016Z,27.37
2018-08-23T14:17:17.323Z,27.29
2018-08-23T14:19:45.708Z,27.26
2018-08-23T14:22:14.059Z,27.24
2018-08-23T14:24:42.368Z,27.24
2018-08-23T14:27:10.720Z,27.28
2018-08-23T14:29:38.995Z,27.29
2018-08-23T14:32:07.367Z,27.30
2018-08-23T14:34:35.691Z,27.34
2018-08-23T14:37:04.018Z,27.38
2018-08-23T14:39:32.550Z,27.40
2018-08-23T14:42:00.863Z,27.40
2018-08-23T14:44:29.186Z,27.39
2018-08-23T14:47:02.888Z,27.39
2018-08-23T14:49:36.072Z,27.29
2018-08-23T14:52:05.788Z,27.26
2018-08-23T14:54:39.449Z,27.22
2018-08-23T14:57:13.136Z,27.13
2018-08-23T14:59:41.673Z,27.07
2018-08-23T15:02:10.000Z,27.09
2018-08-23T15:04:38.446Z,27.12
2018-08-23T15:07:07.132Z,27.11
2018-08-23T15:09:35.477Z,27.02
2018-08-23T15:12:03.992Z,26.96
2018-08-23T15:14:32.345Z,26.90
2018-08-23T15:17:00.696Z,26.88
2018-08-23T15:19:29.048Z,26.83
2018-08-23T15:21:57.384Z,26.74
2018-08-23T15:24:25.691Z,26.76
2018-08-23T15:26:54.055Z,26.73
2018-08-23T15:29:22.435Z,26.68
2018-08-23T15:31:50.747Z,26.64
2018-08-23T15:34:19.082Z,26.55
2018-08-23T15:36:47.411Z,26.51
2018-08-23T15:39:16.492Z,26.47
2018-08-23T15:41:44.872Z,26.44
2018-08-23T15:44:14.071Z,26.39
2018-08-23T15:46:49.252Z,26.35
2018-08-23T15:49:17.812Z,26.31
2018-08-23T15:51:46.378Z,26.30
2018-08-23T15:54:19.030Z,26.25
2018-08-23T15:56:47.521Z,26.23
2018-08-23T15:59:16.139Z,26.21
2018-08-23T16:01:44.489Z,26.20
2018-08-23T16:04:12.861Z,26.18
2018-08-23T16:06:41.208Z,26.14
2018-08-23T16:09:10.711Z,26.07
2018-08-23T16:11:39.108Z,26.07
2018-08-23T16:14:07.714Z,26.03
2018-08-23T16:16:41.545Z,25.97
2018-08-23T16:19:15.306Z,25.91
2018-08-23T16:21:43.636Z,25.87
2018-08-23T16:24:11.950Z,25.80
2018-08-23T16:26:46.370Z,25.76
2018-08-23T16:29:14.672Z,25.74
2018-08-23T16:31:42.994Z,25.68
2018-08-23T16:34:11.307Z,25.64
2018-08-23T16:36:39.654Z,25.60
2018-08-23T16:39:08.564Z,25.57
2018-08-23T16:41:36.934Z,25.46
2018-08-23T16:44:05.301Z,25.40
2018-08-23T16:46:33.643Z,25.38
2018-08-23T16:49:01.968Z,25.32
2018-08-23T16:51:30.258Z,25.29
2018-08-23T16:53:58.664Z,25.28
2018-08-23T16:56:27.007Z,25.19
2018-08-23T16:58:55.428Z,25.15
2018-08-23T17:01:23.767Z,25.11
2018-08-23T17:03:53.128Z,25.06
2018-08-23T17:06:22.371Z,25.03
2018-08-23T17:08:51.213Z,24.98
2018-08-23T17:11:19.553Z,24.94
2018-08-23T17:13:47.879Z,24.88
2018-08-23T17:16:21.549Z,24.85
2018-08-23T17:18:50.101Z,24.82
2018-08-23T17:21:18.459Z,24.78
2018-08-23T17:23:46.792Z,24.73
2018-08-23T17:26:15.113Z,24.69
2018-08-23T17:28:43.452Z,24.64
2018-08-23T17:31:12.142Z,24.60
2018-08-23T17:33:40.474Z,24.57
2018-08-23T17:36:08.843Z,24.54
2018-08-23T17:38:37.286Z,24.47
2018-08-23T17:41:05.700Z,24.40
2018-08-23T17:43:34.007Z,24.37
2018-08-23T17:46:02.385Z,24.33
2018-08-23T17:48:30.770Z,24.25
2018-08-23T17:50:59.035Z,24.19
2018-08-23T17:53:27.351Z,24.12
2018-08-23T17:55:55.717Z,24.08
2018-08-23T17:58:24.080Z,24.02
2018-08-23T18:00:52.619Z,23.96
2018-08-23T18:03:20.965Z,23.89
2018-08-23T18:05:49.302Z,23.86
2018-08-23T18:08:17.630Z,23.79
2018-08-23T18:10:45.989Z,23.74
2018-08-23T18:13:14.290Z,23.68
2018-08-23T18:15:47.870Z,23.62
2018-08-23T18:18:16.157Z,23.55
2018-08-23T18:20:44.491Z,23.52
2018-08-23T18:23:12.873Z,23.46
2018-08-23T18:25:41.235Z,23.42
2018-08-23T18:28:09.612Z,23.38
2018-08-23T18:30:37.976Z,23.33
2018-08-23T18:33:06.343Z,23.29
2018-08-23T18:35:34.658Z,23.25
2018-08-23T18:38:02.987Z,23.22
2018-08-23T18:40:31.305Z,23.19
2018-08-23T18:42:59.602Z,23.11
2018-08-23T18:45:27.945Z,23.06
2018-08-23T18:47:56.278Z,23.04
2018-08-23T18:50:24.637Z,22.99
2018-08-23T18:52:52.949Z,22.96
2018-08-23T18:55:21.255Z,22.94
2018-08-23T18:57:49.591Z,22.92
2018-08-23T19:00:18.024Z,22.87
2018-08-23T19:02:46.313Z,22.83
2018-08-23T19:05:14.653Z,22.77
2018-08-23T19:07:43.770Z,22.72
2018-08-23T19:10:12.656Z,22.69
2018-08-23T19:12:41.025Z,22.65
2018-08-23T19:15:09.556Z,22.58
2018-08-23T19:17:40.079Z,22.52
2018-08-23T19:20:09.790Z,22.50
2018-08-23T19:22:38.234Z,22.51
2018-08-23T19:25:07.627Z,22.48
2018-08-23T19:27:35.910Z,22.44
2018-08-23T19:30:04.665Z,22.42
2018-08-23T19:32:33.044Z,22.39
2018-08-23T19:35:01.368Z,22.38
2018-08-23T19:37:29.695Z,22.37
2018-08-23T19:39:58.035Z,22.35
2018-08-23T19:42:26.402Z,22.33
2018-08-23T19:44:59.297Z,22.30
2018-08-23T19:47:33.045Z,22.27
2018-08-23T19:50:02.613Z,22.24
2018-08-23T19:52:30.926Z,22.18
2018-08-23T19:54:59.261Z,22.12
2018-08-23T19:57:27.728Z,22.07
2018-08-23T19:59:56.052Z,22.03
2018-08-23T20:02:24.349Z,22.00
2018-08-23T20:04:52.735Z,21.95
2018-08-23T20:07:21.100Z,21.90
2018-08-23T20:09:49.442Z,21.84
2018-08-23T20:12:17.878Z,21.78
2018-08-23T20:14:46.202Z,21.72
2018-08-23T20:17:14.583Z,21.65
2018-08-23T20:19:43.752Z,21.60
2018-08-23T20:22:12.144Z,21.55
2018-08-23T20:24:40.456Z,21.49
2018-08-23T20:27:08.839Z,21.43
2018-08-23T20:29:37.151Z,21.42
2018-08-23T20:32:05.544Z,21.40
2018-08-23T20:34:33.885Z,21.39
2018-08-23T20:37:02.242Z,21.37
2018-08-23T20:39:30.579Z,21.36
2018-08-23T20:41:58.928Z,21.34
2018-08-23T20:44:27.596Z,21.35
2018-08-23T20:46:56.491Z,21.32
2018-08-23T20:49:24.870Z,21.29
2018-08-23T20:51:53.206Z,21.24
2018-08-23T20:54:21.632Z,21.18
2018-08-23T20:56:49.967Z,21.11
2018-08-23T20:59:18.346Z,21.07
2018-08-23T21:01:46.687Z,21.05
2018-08-23T21:04:15.019Z,21.05
2018-08-23T21:06:43.375Z,21.07
2018-08-23T21:09:13.071Z,21.08
2018-08-23T21:11:41.478Z,21.12
2018-08-23T21:14:10.542Z,21.14
2018-08-23T21:16:38.950Z,21.16
2018-08-23T21:19:07.318Z,21.17
2018-08-23T21:21:35.628Z,21.14
2018-08-23T21:24:03.965Z,21.13
2018-08-23T21:26:32.432Z,21.08
2018-08-23T21:29:00.774Z,21.02
2018-08-23T21:31:29.135Z,20.96
2018-08-23T21:33:57.421Z,20.90
2018-08-23T21:36:25.734Z,20.85
2018-08-23T21:38:54.073Z,20.77
2018-08-23T21:41:22.452Z,20.72
2018-08-23T21:43:50.764Z,20.66
2018-08-23T21:46:19.119Z,20.62
2018-08-23T21:48:47.432Z,20.59
2018-08-23T21:51:15.769Z,20.55
2018-08-23T21:53:44.117Z,20.54
2018-08-23T21:56:12.400Z,20.51
2018-08-23T21:58:40.765Z,20.49
2018-08-23T22:01:10.057Z,20.48
2018-08-23T22:03:38.940Z,20.47
2018-08-23T22:06:07.282Z,20.47
2018-08-23T22:08:35.801Z,20.50
2018-08-23T22:11:04.100Z,20.51
2018-08-23T22:13:32.761Z,20.49
2018-08-23T22:16:01.113Z,20.45
2018-08-23T22:18:29.455Z,20.42
2018-08-23T22:20:57.758Z,20.40
2018-08-23T22:23:26.071Z,20.39
2018-08-23T22:25:54.350Z,20.41
2018-08-23T22:28:22.655Z,20.42
2018-08-23T22:30:50.997Z,20.44
2018-08-23T22:33:22.130Z,20.45
2018-08-23T22:35:50.440Z,20.46
2018-08-23T22:38:18.790Z,20.47
2018-08-23T22:40:47.154Z,20.50
2018-08-23T22:43:15.464Z,20.54
2018-08-23T22:45:43.771Z,20.57
2018-08-23T22:48:12.080Z,20.60
2018-08-23T22:50:40.397Z,20.63
2018-08-23T22:53:08.687Z,20.64
2018-08-23T22:55:37.105Z,20.64
2018-08-23T22:58:05.859Z,20.65
2018-08-23T23:00:40.257Z,20.66
2018-08-23T23:03:14.012Z,20.67
2018-08-23T23:05:42.727Z,20.67
2018-08-23T23:08:17.653Z,20.66
2018-08-23T23:10:45.964Z,20.64
2018-08-23T23:13:14.273Z,20.61
2018-08-23T23:15:42.620Z,20.59
2018-08-23T23:18:10.935Z,20.57
2018-08-23T23:20:39.327Z,20.56
2018-08-23T23:23:07.678Z,20.57
2018-08-23T23:25:36.014Z,20.57
2018-08-23T23:28:04.356Z,20.57
2018-08-23T23:30:32.746Z,20.57
2018-08-23T23:33:01.062Z,20.58
2018-08-23T23:35:29.394Z,20.60
2018-08-23T23:37:57.720Z,20.61
2018-08-23T23:40:26.053Z,20.62
2018-08-23T23:42:54.411Z,20.66
2018-08-23T23:45:22.713Z,20.70
2018-08-23T23:47:51.043Z,20.71
2018-08-23T23:50:19.338Z,20.70
2018-08-23T23:52:47.655Z,20.70
2018-08-23T23:55:15.977Z,20.70
2018-08-23T23:57:44.371Z,20.71
